Brashear, Texas
Current Conditions -  °F | °C
As of 11:55 PM on Tuesday 21 Oct 2014 (Local Time) from KSLR Reporting Station
Clear Clear  
Wind Chill: 63°   Ceiling: Unl
Heat Index: 63°   Visibility: 7mi
Dew Point: 61°   Wind: 0mph
Humidity: 95%   Direction: NA
Pressure: 30.1"   Gusts: NA
Location:  33.12°N, 95.73°W
Report Text: KSLR 220455Z AUTO 00000KT 7SM CLR 17/16 A3010 RMK AO2 T01700162
Loading
Personal Weather Stations






























Interactive Weather Map New forecast layout! Learn more

10-Day Weather Forecast

Advertisements
Track Severe Weather on mobile